Triangle, Virginia
Current Conditions -  °F | °C
As of 9:56 PM on Monday 20 Oct 2014 (Local Time) from KNYG Reporting Station
Few Clouds Few Clouds  
Wind Chill: 61°   Ceiling: Unl
Heat Index: 61°   Visibility: 10mi
Dew Point: 47°   Wind: 8mph
Humidity: 60%   Direction: 210°SSW
Pressure: 29.97"   Gusts: NA
Location:  38.55°N, 77.34°W
Report Text: KNYG 210156Z AUTO 21007KT 10SM FEW120 16/08 A2997 RMK AO2 SLP150 T01610083 $
Loading
Personal Weather Stations






























Interactive Weather Map
Tropical Storm Tracking
New forecast layout! Learn more

10-Day Weather Forecast

Advertisements
Track Severe Weather on mobile